Nearby METAR Reports

 

KORH - Worcester, Massachusetts, USA
Distance from station: NW 4mi, 7km
Updated: Tue, 11-May-2021 10:54am EDT
Clear
Clear
 Wind from W
Wind: W 21 mph , 33 km/h, Gust: 29 mph , 46 km/h
Temperature: 54°F , 12°C
Dew Point: 25°F , -4°C
Humidity: 33%
Barometer: 29.96 inHg , 1014.6 hPa
Clouds: Clear
Visibility: 10 miles , 16 km
2021/05/11 14:54 KORH 111454Z 27018G25KT 10SM CLR 12/M04 A2996 RMK AO2 PK WND 28026/1424 SLP147 T01221044 53002
KBOS - Boston, Massachusetts, USA
Distance from station: ENE 42mi, 68km
Updated: Tue, 11-May-2021 10:54am EDT
Few Clouds
Few Clouds
 Wind from W
Wind: W 17 mph , 28 km/h, Gust: 24 mph , 39 km/h
Temperature: 61°F , 16°C
Dew Point: 28°F , -2°C
Humidity: 29%
Barometer: 29.93 inHg , 1013.5 hPa
Clouds: Few Clouds
Visibility: 10 miles , 16 km
Cloud details: Few Clouds 6000 ft
Few Clouds 25000 ft
2021/05/11 14:54 KBOS 111454Z 28015G21KT 10SM FEW060 FEW250 16/M02 A2993 RMK AO2 PK WND 27027/1411 SLP136 T01611022 58003
 
KCQX - Chatham, Massachusetts, USA
Distance from station: SE 102mi, 164km
Updated: Tue, 11-May-2021 10:52am EDT
Clear
Clear
 Wind from SW
Wind: SW 13 mph , 20 km/h, Gust: 20 mph , 31 km/h
Temperature: 59°F , 15°C
Dew Point: 37°F , 3°C
Humidity: 45%
Barometer: 29.96 inHg , 1014.6 hPa
Clouds: Clear
Visibility: 10 miles , 16 km
2021/05/11 14:52 KCQX 111452Z AUTO 22011G17KT 10SM CLR 15/03 A2996 RMK AO2 SLP146 T01500028 58000
KMVY - Marthas Vineyard, Massachusetts, USA
Distance from station: SE 84mi, 135km
Updated: Tue, 11-May-2021 10:53am EDT
Clear
Clear
 Wind from WSW
Wind: WSW 12 mph , 19 km/h, Gust: 21 mph , 33 km/h
Temperature: 61°F , 16°C
Dew Point: 36°F , 2°C
Humidity: 39%
Barometer: 29.97 inHg , 1014.9 hPa
Clouds: Clear
Visibility: 10 miles , 16 km
2021/05/11 14:53 KMVY 111453Z 25010G18KT 10SM CLR 16/02 A2997 RMK AO2 SLP150 T01560017 58001
 
KPVC - Provincetown, Massachusetts, USA
Distance from station: NNW 85mi, 136km
Updated: Tue, 11-May-2021 10:56am EDT
Clear
Clear
 Wind from SW
Wind: SW 13 mph , 20 km/h
Temperature: 59°F , 15°C
Dew Point: 39°F , 4°C
Humidity: 48%
Barometer: 29.95 inHg , 1014.2 hPa
Clouds: Clear
Visibility: 10 miles , 16 km
2021/05/11 14:56 KPVC 111456Z AUTO 22011KT 10SM CLR 15/04 A2995 RMK AO2 SLP140 T01500044 58001 $
KAQW - Savoy, Massachusetts, USA
Distance from station: NNW 66mi, 106km
Updated: Tue, 11-May-2021 10:52am EDT
Mostly cloudy
Mostly cloudy
 
Temperature: 54°F , 12°C
Dew Point: 28°F , -2°C
Humidity: 38%
Barometer: 29.99 inHg , 1015.6 hPa
Clouds: Mostly cloudy
Cloud details: Mostly cloudy 6000 ft
2021/05/11 14:52 KAQW 111452Z AUTO BKN060 12/M02 A2999 RMK AO2 SLP158 6//// T01171017 55002 $
 
KIZG - Fryeburg, Maine, USA
Distance from station: NNE 133mi, 214km
Updated: Tue, 11-May-2021 10:54am EDT
Partly cloudy
Partly cloudy
 Wind from varies
Wind: varies 7 mph , 11 km/h, Gust: 22 mph , 35 km/h
Temperature: 59°F , 15°C
Dew Point: 30°F , -1°C
Humidity: 34%
Barometer: 29.86 inHg , 1011.2 hPa
Clouds: Partly cloudy
Visibility: 10 miles , 16 km
Cloud details: Few Clouds 6000 ft
Partly cloudy 8500 ft
2021/05/11 14:54 KIZG 111454Z AUTO VRB06G19KT 10SM FEW060 SCT085 15/M01 A2986 RMK AO2 SLP113 T01501011 55004
KMWN - Mt Washington, New Hampshire, USA
Distance from station: NNE 146mi, 234km
Updated: Tue, 11-May-2021 10:50am EDT
Light snow, Showers, Freezing, Fog, Overcast
Light snow, Showers, Freezing, Fog, Overcast
 Wind from WNW
Wind: WNW 23 mph , 37 km/h, Gust: 36 mph , 57 km/h
Temperature: 25°F , -4°C
Wind Chill: 10°F , -12°C
Dew Point: 25°F , -4°C
Humidity: 100%
Summary: Light snow, Showers, Freezing, Fog
Clouds: Overcast
Visibility: 0 miles , 0 km
Cloud details: Overcast 0 ft
2021/05/11 14:50 KMWN 111450Z 30020G31KT 0SM -SHSN FZFG VV000 M04/M04 RMK VRY LGT ICG
 
KBML - Berlin, New Hampshire, USA
Distance from station: NNE 160mi, 257km
Updated: Tue, 11-May-2021 10:52am EDT
Mostly cloudy
Mostly cloudy
 Wind from NNE
Wind: NNE 8 mph , 13 km/h
Temperature: 48°F , 9°C
Wind Chill: 44°F , 7°C
Dew Point: 39°F , 4°C
Humidity: 71%
Barometer: 29.87 inHg , 1011.5 hPa
Clouds: Mostly cloudy
Visibility: 10 miles , 16 km
Cloud details: Partly cloudy 2700 ft
Mostly cloudy 3500 ft
Mostly cloudy 7000 ft
2021/05/11 14:52 KBML 111452Z AUTO 02007KT 10SM SCT027 BKN035 BKN070 09/04 A2987 RMK AO2 RAE12 SLP121 P0002 60002 T00940044 58004